Time,TemperatureF,DewpointF,PressureIn,WindDirection,WindDirectionDegrees,WindSpeedMPH,WindSpeedGustMPH,Humidity,HourlyPrecipIn,Conditions,Clouds,dailyrainin,SoftwareType,DateUTC
2013-04-08 00:00:00,52.5,41.5,29.51,NW,323,0.0,2.0,66,0.00,CLR,,0.00,WeatherDisplay:10.37,2013-04-07 22:00:00,
2013-04-08 00:05:00,52.5,41.5,29.51,NW,315,0.0,2.0,66,0.00,CLR,,0.00,WeatherDisplay:10.37,2013-04-07 22:05:00,
2013-04-08 00:10:00,52.2,41.1,29.51,NW,324,1.0,2.0,66,0.00,CLR,,0.00,WeatherDisplay:10.37,2013-04-07 22:10:00,
2013-04-08 00:15:00,52.2,41.1,29.51,NNW,347,1.0,2.0,66,0.00,CLR,,0.00,WeatherDisplay:10.37,2013-04-07 22:15:00,
2013-04-08 00:20:00,52.2,41.1,29.51,North,0,1.0,2.0,66,0.00,CLR,,0.00,WeatherDisplay:10.37,2013-04-07 22:20:00,
2013-04-08 00:25:00,51.8,40.8,29.51,North,9,0.0,2.0,66,0.00,CLR,,0.00,WeatherDisplay:10.37,2013-04-07 22:25:00,
2013-04-08 00:30:00,51.8,40.8,29.51,NNE,19,0.0,2.0,66,0.00,CLR,,0.00,WeatherDisplay:10.37,2013-04-07 22:30:00,
2013-04-08 00:35:00,51.8,40.8,29.51,NNE,22,0.0,2.0,66,0.00,CLR,,0.00,WeatherDisplay:10.37,2013-04-07 22:35:00,
2013-04-08 00:40:00,51.6,40.6,29.52,North,7,0.0,2.0,66,0.00,CLR,,0.00,WeatherDisplay:10.37,2013-04-07 22:40:00,
2013-04-08 00:45:00,51.6,40.6,29.52,SW,232,0.0,2.0,66,0.00,CLR,,0.00,WeatherDisplay:10.37,2013-04-07 22:45:00,
2013-04-08 00:50:00,51.6,40.6,29.52,SW,225,0.0,2.0,66,0.00,CLR,,0.00,WeatherDisplay:10.37,2013-04-07 22:50:00,
2013-04-08 00:55:00,51.6,41.0,29.52,WSW,238,0.0,2.0,67,0.00,CLR,,0.00,WeatherDisplay:10.37,2013-04-07 22:55:00,
2013-04-08 01:00:00,51.6,41.0,29.52,West,261,0.0,1.0,67,0.00,CLR,,0.00,WeatherDisplay:10.37,2013-04-07 23:00:00,
2013-04-08 01:05:00,51.6,41.0,29.52,West,270,0.0,1.0,67,0.00,CLR,,0.00,WeatherDisplay:10.37,2013-04-07 23:05:00,
2013-04-08 01:10:00,51.6,41.0,29.52,West,270,0.0,2.0,67,0.00,CLR,,0.00,WeatherDisplay:10.37,2013-04-07 23:10:00,
2013-04-08 01:15:00,51.6,41.0,29.52,West,270,0.0,2.0,67,0.00,CLR,,0.00,WeatherDisplay:10.37,2013-04-07 23:15:00,
2013-04-08 01:20:00,51.6,41.0,29.52,West,270,0.0,2.0,67,0.00,CLR,,0.00,WeatherDisplay:10.37,2013-04-07 23:20:00,
2013-04-08 01:25:00,51.4,40.8,29.52,WNW,293,0.0,2.0,67,0.00,CLR,,0.00,WeatherDisplay:10.37,2013-04-07 23:25:00,
2013-04-08 01:30:00,51.4,40.8,29.52,NNW,346,0.0,2.0,67,0.00,CLR,,0.00,WeatherDisplay:10.37,2013-04-07 23:30:00,
2013-04-08 01:35:00,51.4,40.8,29.52,North,0,0.0,2.0,67,0.00,CLR,,0.00,WeatherDisplay:10.37,2013-04-07 23:35:00,
2013-04-08 01:40:00,51.3,40.7,29.52,NNW,347,0.0,2.0,67,0.00,CLR,,0.00,WeatherDisplay:10.37,2013-04-07 23:40:00,
2013-04-08 01:45:00,51.3,40.7,29.52,NW,324,0.0,2.0,67,0.00,CLR,,0.00,WeatherDisplay:10.37,2013-04-07 23:45:00,
2013-04-08 01:50:00,51.3,40.7,29.52,NW,315,0.0,2.0,67,0.00,CLR,,0.00,WeatherDisplay:10.37,2013-04-07 23:50:00,
2013-04-08 01:55:00,51.3,40.3,29.51,NW,315,0.0,2.0,66,0.00,CLR,,0.00,WeatherDisplay:10.37,2013-04-07 23:55:00,
2013-04-08 02:00:00,51.3,40.3,29.51,NW,315,0.0,2.0,66,0.00,CLR,,0.00,WeatherDisplay:10.37,2013-04-08 00:00:00,
2013-04-08 02:05:00,51.3,40.3,29.51,NW,315,0.0,2.0,66,0.00,CLR,,0.00,WeatherDisplay:10.37,2013-04-08 00:05:00,
2013-04-08 02:10:00,50.9,39.9,29.52,NW,310,1.0,2.0,66,0.00,CLR,,0.00,WeatherDisplay:10.37,2013-04-08 00:10:00,
2013-04-08 02:15:00,50.9,39.9,29.52,WNW,299,1.0,2.0,66,0.00,CLR,,0.00,WeatherDisplay:10.37,2013-04-08 00:15:00,
2013-04-08 02:20:00,50.9,39.9,29.52,WNW,292,1.0,2.0,66,0.00,CLR,,0.00,WeatherDisplay:10.37,2013-04-08 00:20:00,
2013-04-08 02:25:00,50.9,40.3,29.53,NW,320,0.0,2.0,67,0.00,CLR,,0.00,WeatherDisplay:10.37,2013-04-08 00:25:00,
2013-04-08 02:30:00,50.9,40.3,29.53,North,353,0.0,2.0,67,0.00,CLR,,0.00,WeatherDisplay:10.37,2013-04-08 00:30:00,
2013-04-08 02:35:00,50.9,40.3,29.53,North,0,0.0,2.0,67,0.00,CLR,,0.00,WeatherDisplay:10.37,2013-04-08 00:35:00,
2013-04-08 02:40:00,51.1,40.5,29.53,NNW,348,1.0,2.0,67,0.00,CLR,,0.00,WeatherDisplay:10.37,2013-04-08 00:40:00,
2013-04-08 02:45:00,51.1,40.5,29.53,NW,311,1.0,2.0,67,0.00,CLR,,0.00,WeatherDisplay:10.37,2013-04-08 00:45:00,
2013-04-08 02:50:00,51.1,40.5,29.53,WNW,292,1.0,2.0,67,0.00,CLR,,0.00,WeatherDisplay:10.37,2013-04-08 00:50:00,
2013-04-08 02:55:00,51.4,40.8,29.54,North,11,1.0,3.0,67,0.00,CLR,,0.00,WeatherDisplay:10.37,2013-04-08 00:55:00,
2013-04-08 03:00:00,51.4,40.8,29.54,East,87,1.0,3.0,67,0.00,CLR,,0.00,WeatherDisplay:10.37,2013-04-08 01:00:00,
2013-04-08 03:05:00,51.4,40.8,29.54,East,90,1.0,3.0,67,0.00,CLR,,0.00,WeatherDisplay:10.37,2013-04-08 01:05:00,
2013-04-08 03:10:00,51.6,40.6,29.54,ENE,73,0.0,3.0,66,0.00,CLR,,0.00,WeatherDisplay:10.37,2013-04-08 01:10:00,
2013-04-08 03:15:00,51.6,40.6,29.54,NNE,19,0.0,2.0,66,0.00,CLR,,0.00,WeatherDisplay:10.37,2013-04-08 01:15:00,
2013-04-08 03:20:00,51.6,40.6,29.54,North,0,0.0,2.0,66,0.00,CLR,,0.00,WeatherDisplay:10.37,2013-04-08 01:20:00,
2013-04-08 03:25:00,51.8,40.8,29.55,North,353,0.0,2.0,66,0.00,CLR,,0.00,WeatherDisplay:10.37,2013-04-08 01:25:00,
2013-04-08 03:30:00,51.8,40.8,29.55,NNW,342,0.0,2.0,66,0.00,CLR,,0.00,WeatherDisplay:10.37,2013-04-08 01:30:00,
2013-04-08 03:35:00,51.8,40.8,29.55,NNW,338,0.0,2.0,66,0.00,CLR,,0.00,WeatherDisplay:10.37,2013-04-08 01:35:00,
2013-04-08 03:40:00,52.3,40.9,29.55,North,357,0.0,2.0,65,0.00,CLR,,0.00,WeatherDisplay:10.37,2013-04-08 01:40:00,
2013-04-08 03:45:00,52.3,40.9,29.55,NNE,33,0.0,2.0,65,0.00,CLR,,0.00,WeatherDisplay:10.37,2013-04-08 01:45:00,
2013-04-08 03:50:00,52.3,40.9,29.55,NE,45,0.0,2.0,65,0.00,CLR,,0.00,WeatherDisplay:10.37,2013-04-08 01:50:00,
2013-04-08 03:55:00,52.9,41.4,29.55,NE,45,0.0,2.0,65,0.00,CLR,,0.00,WeatherDisplay:10.37,2013-04-08 01:55:00,
2013-04-08 04:00:00,52.9,41.4,29.55,NE,45,0.0,2.0,65,0.00,CLR,,0.00,WeatherDisplay:10.37,2013-04-08 02:00:00,
2013-04-08 04:05:00,52.9,41.4,29.55,NE,45,0.0,2.0,65,0.00,CLR,,0.00,WeatherDisplay:10.37,2013-04-08 02:05:00,
2013-04-08 04:10:00,53.2,41.4,29.56,NNE,25,2.0,4.0,64,0.00,CLR,,0.00,WeatherDisplay:10.37,2013-04-08 02:10:00,
2013-04-08 04:15:00,53.2,41.4,29.56,North,5,2.0,4.0,64,0.00,CLR,,0.00,WeatherDisplay:10.37,2013-04-08 02:15:00,
2013-04-08 04:20:00,53.2,41.4,29.56,North,0,2.0,4.0,64,0.00,CLR,,0.00,WeatherDisplay:10.37,2013-04-08 02:20:00,
2013-04-08 04:25:00,53.4,41.1,29.57,NNW,346,1.0,4.0,63,0.00,CLR,,0.00,WeatherDisplay:10.37,2013-04-08 02:25:00,
2013-04-08 04:30:00,53.4,41.1,29.57,NW,308,1.0,4.0,63,0.00,CLR,,0.00,WeatherDisplay:10.37,2013-04-08 02:30:00,
2013-04-08 04:35:00,53.4,41.1,29.57,WNW,292,1.0,4.0,63,0.00,CLR,,0.00,WeatherDisplay:10.37,2013-04-08 02:35:00,
2013-04-08 04:40:00,54.0,41.2,29.57,WNW,296,1.0,4.0,62,0.00,CLR,,0.00,WeatherDisplay:10.37,2013-04-08 02:40:00,
2013-04-08 04:45:00,54.0,41.2,29.57,NW,307,1.0,2.0,62,0.00,CLR,,0.00,WeatherDisplay:10.37,2013-04-08 02:45:00,
2013-04-08 04:50:00,54.0,41.2,29.57,NW,315,1.0,2.0,62,0.00,CLR,,0.00,WeatherDisplay:10.37,2013-04-08 02:50:00,
2013-04-08 04:55:00,55.0,41.8,29.57,NNW,340,1.0,3.0,61,0.00,CLR,,0.00,WeatherDisplay:10.37,2013-04-08 02:55:00,
2013-04-08 05:00:00,55.0,41.8,29.57,NE,54,1.0,3.0,61,0.00,CLR,,0.00,WeatherDisplay:10.37,2013-04-08 03:00:00,
2013-04-08 05:05:00,55.0,41.8,29.57,ENE,68,1.0,3.0,61,0.00,CLR,,0.00,WeatherDisplay:10.37,2013-04-08 03:05:00,
2013-04-08 05:10:00,56.3,42.6,29.57,NE,55,1.0,4.0,60,0.00,CLR,,0.00,WeatherDisplay:10.37,2013-04-08 03:10:00,
2013-04-08 05:15:00,56.3,42.6,29.57,NNE,31,1.0,4.0,60,0.00,CLR,,0.00,WeatherDisplay:10.37,2013-04-08 03:15:00,
2013-04-08 05:20:00,56.3,42.6,29.57,NNE,22,1.0,4.0,60,0.00,CLR,,0.00,WeatherDisplay:10.37,2013-04-08 03:20:00,
2013-04-08 05:25:00,57.2,43.0,29.57,NNE,29,1.0,4.0,59,0.00,CLR,,0.00,WeatherDisplay:10.37,2013-04-08 03:25:00,
2013-04-08 05:30:00,57.2,43.0,29.57,NE,40,1.0,2.0,59,0.00,CLR,,0.00,WeatherDisplay:10.37,2013-04-08 03:30:00,
2013-04-08 05:35:00,57.2,43.0,29.57,NE,45,1.0,2.0,59,0.00,CLR,,0.00,WeatherDisplay:10.37,2013-04-08 03:35:00,
2013-04-08 05:40:00,57.9,43.7,29.58,North,11,1.0,4.0,59,0.00,CLR,,0.00,WeatherDisplay:10.37,2013-04-08 03:40:00,
2013-04-08 05:45:00,57.9,43.7,29.58,NNW,343,1.0,4.0,59,0.00,CLR,,0.00,WeatherDisplay:10.37,2013-04-08 03:45:00,
2013-04-08 05:50:00,57.9,43.7,29.58,NNW,338,1.0,4.0,59,0.00,CLR,,0.00,WeatherDisplay:10.37,2013-04-08 03:50:00,
2013-04-08 05:55:00,58.5,43.7,29.58,North,356,0.0,4.0,58,0.00,CLR,,0.00,WeatherDisplay:10.37,2013-04-08 03:55:00,
2013-04-08 06:00:00,58.5,43.7,29.58,ENE,70,0.0,1.0,58,0.00,CLR,,0.00,WeatherDisplay:10.37,2013-04-08 04:00:00,
2013-04-08 06:05:00,58.5,43.7,29.58,East,90,0.0,1.0,58,0.00,CLR,,0.00,WeatherDisplay:10.37,2013-04-08 04:05:00,
2013-04-08 06:10:00,59.4,44.6,29.58,ESE,103,0.0,1.0,58,0.00,CLR,,0.00,WeatherDisplay:10.37,2013-04-08 04:10:00,
2013-04-08 06:15:00,59.4,44.6,29.58,SE,126,0.0,1.0,58,0.00,CLR,,0.00,WeatherDisplay:10.37,2013-04-08 04:15:00,
2013-04-08 06:20:00,59.4,44.6,29.58,SE,135,0.0,1.0,58,0.00,CLR,,0.00,WeatherDisplay:10.37,2013-04-08 04:20:00,
2013-04-08 06:25:00,60.1,44.3,29.59,East,95,2.0,4.0,56,0.00,CLR,,0.00,WeatherDisplay:10.37,2013-04-08 04:25:00,
2013-04-08 08:35:00,62.2,48.2,29.60,SSW,200,3.0,5.0,60,0.00,CLR,,0.00,WeatherDisplay:10.37,2013-04-08 06:35:00,
2013-04-08 08:40:00,62.2,48.2,29.60,South,185,3.0,5.0,60,0.00,CLR,,0.00,WeatherDisplay:10.37,2013-04-08 06:40:00,
2013-04-08 08:45:00,62.2,48.2,29.60,South,180,3.0,5.0,60,0.00,CLR,,0.00,WeatherDisplay:10.37,2013-04-08 06:45:00,
2013-04-08 08:50:00,62.2,49.1,29.60,SW,217,5.0,6.0,62,0.00,CLR,,0.00,WeatherDisplay:10.37,2013-04-08 06:50:00,
2013-04-08 08:55:00,62.2,49.1,29.60,NW,307,5.0,6.0,62,0.00,CLR,,0.00,WeatherDisplay:10.37,2013-04-08 06:55:00,
2013-04-08 09:00:00,62.2,49.1,29.60,NW,315,5.0,6.0,62,0.00,CLR,,0.00,WeatherDisplay:10.37,2013-04-08 07:00:00,
2013-04-08 09:05:00,62.2,49.1,29.60,NW,315,5.0,6.0,62,0.00,CLR,,0.00,WeatherDisplay:10.37,2013-04-08 07:05:00,
2013-04-08 09:10:00,62.2,49.1,29.60,NW,315,5.0,6.0,62,0.00,CLR,,0.00,WeatherDisplay:10.37,2013-04-08 07:10:00,
2013-04-08 09:15:00,62.2,49.1,29.60,NW,315,5.0,6.0,62,0.00,CLR,,0.00,WeatherDisplay:10.37,2013-04-08 07:15:00,
2013-04-08 09:20:00,62.4,49.2,29.60,WNW,285,6.0,9.0,62,0.00,CLR,,0.00,WeatherDisplay:10.37,2013-04-08 07:20:00,
2013-04-08 09:25:00,62.4,49.2,29.60,South,190,6.0,9.0,62,0.00,CLR,,0.00,WeatherDisplay:10.37,2013-04-08 07:25:00,
2013-04-08 09:30:00,62.4,49.2,29.60,South,180,6.0,9.0,62,0.00,CLR,,0.00,WeatherDisplay:10.37,2013-04-08 07:30:00,
2013-04-08 09:35:00,62.6,49.8,29.60,South,170,3.0,9.0,63,0.00,CLR,,0.00,WeatherDisplay:10.37,2013-04-08 07:35:00,
2013-04-08 09:40:00,62.6,49.8,29.60,SE,146,3.0,8.0,63,0.00,CLR,,0.00,WeatherDisplay:10.37,2013-04-08 07:40:00,
2013-04-08 09:45:00,62.6,49.8,29.60,SE,135,3.0,8.0,63,0.00,CLR,,0.00,WeatherDisplay:10.37,2013-04-08 07:45:00,
2013-04-08 09:50:00,62.6,49.8,29.60,SE,135,3.0,8.0,63,0.00,CLR,,0.00,WeatherDisplay:10.37,2013-04-08 07:50:00,
2013-04-08 09:55:00,62.6,49.8,29.60,SE,135,3.0,8.0,63,0.00,CLR,,0.00,WeatherDisplay:10.37,2013-04-08 07:55:00,
2013-04-08 10:00:00,62.6,49.8,29.60,SE,135,3.0,8.0,63,0.00,CLR,,0.00,WeatherDisplay:10.37,2013-04-08 08:00:00,
2013-04-08 10:05:00,62.8,50.0,29.60,SE,135,3.0,10.0,63,0.00,CLR,,0.00,WeatherDisplay:10.37,2013-04-08 08:05:00,
2013-04-08 10:10:00,62.8,50.0,29.60,NW,315,3.0,10.0,63,0.00,CLR,,0.00,WeatherDisplay:10.37,2013-04-08 08:10:00,
2013-04-08 10:15:00,62.8,50.0,29.60,NW,315,3.0,10.0,63,0.00,CLR,,0.00,WeatherDisplay:10.37,2013-04-08 08:15:00,
2013-04-08 10:20:00,62.8,50.0,29.60,NW,315,3.0,10.0,63,0.00,CLR,,0.00,WeatherDisplay:10.37,2013-04-08 08:20:00,
2013-04-08 10:25:00,62.8,50.0,29.60,NW,315,3.0,10.0,63,0.00,CLR,,0.00,WeatherDisplay:10.37,2013-04-08 08:25:00,
2013-04-08 10:27:00,60.1,44.3,29.59,NE,45,4.6,4.6,56,0.00,CLR,,0.00,WeatherDisplay:10.37,2013-04-08 08:27:00,
2013-04-08 10:28:00,60.1,44.3,29.59,NE,45,4.6,4.6,56,0.00,CLR,,0.00,WeatherDisplay:10.37,2013-04-08 08:28:00,
2013-04-08 10:30:00,62.8,50.0,29.60,NW,315,3.0,10.0,63,0.00,CLR,,0.00,WeatherDisplay:10.37,2013-04-08 08:30:00,
2013-04-08 10:33:00,60.4,44.7,29.59,ESE,112,3.5,3.5,56,0.00,CLR,,0.00,WeatherDisplay:10.37,2013-04-08 08:33:00,
2013-04-08 10:35:00,63.3,50.1,29.60,WNW,298,2.0,10.0,62,0.00,CLR,,0.00,WeatherDisplay:10.37,2013-04-08 08:35:00,
2013-04-08 10:38:00,60.8,45.0,29.59,East,90,5.8,5.8,56,0.00,CLR,,0.00,WeatherDisplay:10.37,2013-04-08 08:38:00,
2013-04-08 10:40:00,63.3,50.1,29.60,WSW,244,2.0,5.0,62,0.00,CLR,,0.00,WeatherDisplay:10.37,2013-04-08 08:40:00,
2013-04-08 10:43:00,61.3,45.5,29.59,NW,315,3.5,3.5,56,0.00,CLR,,0.00,WeatherDisplay:10.37,2013-04-08 08:43:00,
2013-04-08 10:45:00,63.3,50.1,29.60,SW,225,2.0,5.0,62,0.00,CLR,,0.00,WeatherDisplay:10.37,2013-04-08 08:45:00,
2013-04-08 10:48:00,61.0,45.2,29.59,North,0,5.8,5.8,56,0.00,CLR,,0.00,WeatherDisplay:10.37,2013-04-08 08:48:00,
2013-04-08 10:50:00,63.3,50.1,29.60,SW,225,2.0,5.0,62,0.00,CLR,,0.00,WeatherDisplay:10.37,2013-04-08 08:50:00,
2013-04-08 10:53:00,60.6,44.8,29.59,NW,315,5.8,5.8,56,0.00,CLR,,0.00,WeatherDisplay:10.37,2013-04-08 08:53:00,
2013-04-08 10:55:00,63.3,50.1,29.60,SW,225,2.0,5.0,62,0.00,CLR,,0.00,WeatherDisplay:10.37,2013-04-08 08:55:00,
2013-04-08 10:58:00,60.8,45.0,29.59,West,270,4.6,4.6,56,0.00,CLR,,0.00,WeatherDisplay:10.37,2013-04-08 08:58:00,
2013-04-08 11:00:00,63.3,50.1,29.60,SW,225,2.0,5.0,62,0.00,CLR,,0.00,WeatherDisplay:10.37,2013-04-08 09:00:00,
2013-04-08 11:03:00,61.0,45.2,29.60,NW,315,2.3,2.3,56,0.00,CLR,,0.00,WeatherDisplay:10.37,2013-04-08 09:03:00,
2013-04-08 11:05:00,63.9,50.6,29.59,SSW,194,3.0,7.0,62,0.00,CLR,,0.00,WeatherDisplay:10.37,2013-04-08 09:05:00,
2013-04-08 11:08:00,61.3,45.5,29.59,SW,225,2.3,2.3,56,0.00,CLR,,0.00,WeatherDisplay:10.37,2013-04-08 09:08:00,
2013-04-08 11:10:00,63.9,50.6,29.59,SE,145,3.0,7.0,62,0.00,CLR,,0.00,WeatherDisplay:10.37,2013-04-08 09:10:00,
2013-04-08 11:13:00,61.7,45.8,29.59,NE,45,4.6,4.6,56,0.00,CLR,,0.00,WeatherDisplay:10.37,2013-04-08 09:13:00,
2013-04-08 11:15:00,63.9,50.6,29.59,SE,135,3.0,7.0,62,0.00,CLR,,0.00,WeatherDisplay:10.37,2013-04-08 09:15:00,
2013-04-08 11:18:00,61.5,45.2,29.59,NW,315,3.5,3.5,55,0.00,CLR,,0.00,WeatherDisplay:10.37,2013-04-08 09:18:00,
2013-04-08 11:20:00,63.9,50.6,29.59,SE,135,3.0,7.0,62,0.00,CLR,,0.00,WeatherDisplay:10.37,2013-04-08 09:20:00,
2013-04-08 11:23:00,61.3,45.0,29.60,SE,135,4.6,0.0,55,0.00,CLR,,0.00,WeatherDisplay:10.37,2013-04-08 09:23:00,
2013-04-08 11:25:00,63.9,50.6,29.59,SE,135,3.0,7.0,62,0.00,CLR,,0.00,WeatherDisplay:10.37,2013-04-08 09:25:00,
2013-04-08 11:28:00,61.3,45.0,29.60,SE,135,3.5,0.0,55,0.00,CLR,,0.00,WeatherDisplay:10.37,2013-04-08 09:28:00,
2013-04-08 11:30:00,63.9,50.6,29.59,SE,135,3.0,7.0,62,0.00,CLR,,0.00,WeatherDisplay:10.37,2013-04-08 09:30:00,
2013-04-08 11:33:00,61.3,45.0,29.60,South,180,2.3,2.3,55,0.00,CLR,,0.00,WeatherDisplay:10.37,2013-04-08 09:33:00,
2013-04-08 11:35:00,63.9,50.1,29.58,SE,135,2.0,7.0,61,0.00,CLR,,0.00,WeatherDisplay:10.37,2013-04-08 09:35:00,
2013-04-08 11:38:00,61.5,45.7,29.60,SE,135,3.5,3.5,56,0.00,CLR,,0.00,WeatherDisplay:10.37,2013-04-08 09:38:00,
2013-04-08 11:40:00,63.9,50.1,29.58,SE,135,2.0,6.0,61,0.00,CLR,,0.00,WeatherDisplay:10.37,2013-04-08 09:40:00,
2013-04-08 11:43:00,61.9,46.0,29.60,South,180,1.1,0.0,56,0.00,CLR,,0.00,WeatherDisplay:10.37,2013-04-08 09:43:00,
2013-04-08 11:45:00,63.9,50.1,29.58,SE,135,2.0,6.0,61,0.00,CLR,,0.00,WeatherDisplay:10.37,2013-04-08 09:45:00,
2013-04-08 11:48:00,62.2,46.3,29.60,West,270,3.5,0.0,56,0.00,CLR,,0.00,WeatherDisplay:10.37,2013-04-08 09:48:00,
2013-04-08 11:50:00,63.9,50.1,29.58,SE,135,2.0,6.0,61,0.00,CLR,,0.00,WeatherDisplay:10.37,2013-04-08 09:50:00,
2013-04-08 11:53:00,62.6,47.6,29.60,SE,135,6.9,6.9,58,0.00,CLR,,0.00,WeatherDisplay:10.37,2013-04-08 09:53:00,
2013-04-08 11:55:00,63.9,50.1,29.58,SE,135,2.0,6.0,61,0.00,CLR,,0.00,WeatherDisplay:10.37,2013-04-08 09:55:00,
2013-04-08 11:58:00,62.4,47.4,29.59,South,180,6.9,6.9,58,0.00,CLR,,0.00,WeatherDisplay:10.37,2013-04-08 09:58:00,
2013-04-08 12:00:00,63.9,50.1,29.58,SE,135,2.0,6.0,61,0.00,CLR,,0.00,WeatherDisplay:10.37,2013-04-08 10:00:00,
2013-04-08 12:03:00,62.4,47.4,29.59,SE,135,4.6,4.6,58,0.00,CLR,,0.00,WeatherDisplay:10.37,2013-04-08 10:03:00,
2013-04-08 12:05:00,63.7,50.4,29.59,SSE,148,2.0,6.0,62,0.00,CLR,,0.00,WeatherDisplay:10.37,2013-04-08 10:05:00,
2013-04-08 12:08:00,62.4,47.4,29.60,SE,135,4.6,4.6,58,0.00,CLR,,0.00,WeatherDisplay:10.37,2013-04-08 10:08:00,
2013-04-08 12:10:00,63.7,50.4,29.59,South,171,2.0,4.0,62,0.00,CLR,,0.00,WeatherDisplay:10.37,2013-04-08 10:10:00,
2013-04-08 12:13:00,62.4,47.9,29.60,ESE,112,5.8,5.8,59,0.00,CLR,,0.00,WeatherDisplay:10.37,2013-04-08 10:13:00,
2013-04-08 12:15:00,63.7,50.4,29.59,South,180,2.0,4.0,62,0.00,CLR,,0.00,WeatherDisplay:10.37,2013-04-08 10:15:00,
2013-04-08 12:18:00,62.4,47.9,29.60,West,270,5.8,5.8,59,0.00,CLR,,0.00,WeatherDisplay:10.37,2013-04-08 10:18:00,
2013-04-08 12:20:00,63.7,50.4,29.59,South,180,2.0,4.0,62,0.00,CLR,,0.00,WeatherDisplay:10.37,2013-04-08 10:20:00,
2013-04-08 12:23:00,62.4,47.9,29.60,SSE,158,8.1,8.1,59,0.00,CLR,,0.00,WeatherDisplay:10.37,2013-04-08 10:23:00,
2013-04-08 12:25:00,63.7,50.4,29.59,South,180,2.0,4.0,62,0.00,CLR,,0.00,WeatherDisplay:10.37,2013-04-08 10:25:00,
2013-04-08 12:28:00,62.6,48.1,29.60,SE,135,3.5,3.5,59,0.00,CLR,,0.00,WeatherDisplay:10.37,2013-04-08 10:28:00,
2013-04-08 12:30:00,63.7,50.4,29.59,South,180,2.0,4.0,62,0.00,CLR,,0.00,WeatherDisplay:10.37,2013-04-08 10:30:00,
2013-04-08 12:35:00,64.0,50.3,29.58,SSW,193,2.0,7.0,61,0.00,CLR,,0.00,WeatherDisplay:10.37,2013-04-08 10:35:00,
2013-04-08 12:40:00,64.0,50.3,29.58,SW,216,2.0,7.0,61,0.00,CLR,,0.00,WeatherDisplay:10.37,2013-04-08 10:40:00,
2013-04-08 12:45:00,64.0,50.3,29.58,SW,225,2.0,7.0,61,0.00,CLR,,0.00,WeatherDisplay:10.37,2013-04-08 10:45:00,
2013-04-08 12:50:00,64.8,51.0,29.58,SW,216,1.0,7.0,61,0.00,CLR,,0.00,WeatherDisplay:10.37,2013-04-08 10:50:00,
2013-04-08 12:55:00,64.8,51.0,29.58,East,80,1.0,5.0,61,0.00,CLR,,0.00,WeatherDisplay:10.37,2013-04-08 10:55:00,
2013-04-08 13:00:00,64.8,51.0,29.58,ENE,68,1.0,5.0,61,0.00,CLR,,0.00,WeatherDisplay:10.37,2013-04-08 11:00:00,
2013-04-08 13:05:00,64.8,51.0,29.58,ENE,68,1.0,5.0,61,0.00,CLR,,0.00,WeatherDisplay:10.37,2013-04-08 11:05:00,
2013-04-08 13:10:00,64.8,51.0,29.58,ENE,68,1.0,5.0,61,0.00,CLR,,0.00,WeatherDisplay:10.37,2013-04-08 11:10:00,
2013-04-08 13:15:00,64.8,51.0,29.58,ENE,68,1.0,5.0,61,0.00,CLR,,0.00,WeatherDisplay:10.37,2013-04-08 11:15:00,
2013-04-08 13:20:00,64.8,51.0,29.58,ENE,68,1.0,5.0,61,0.00,CLR,,0.00,WeatherDisplay:10.37,2013-04-08 11:20:00,
2013-04-08 13:25:00,64.8,51.0,29.58,ENE,68,1.0,5.0,61,0.00,CLR,,0.00,WeatherDisplay:10.37,2013-04-08 11:25:00,
2013-04-08 13:30:00,64.8,51.0,29.58,ENE,68,1.0,5.0,61,0.00,CLR,,0.00,WeatherDisplay:10.37,2013-04-08 11:30:00,
2013-04-08 13:35:00,64.8,51.0,29.58,ENE,68,1.0,5.0,61,0.00,CLR,,0.00,WeatherDisplay:10.37,2013-04-08 11:35:00,
2013-04-08 13:40:00,64.8,51.0,29.58,ENE,68,1.0,5.0,61,0.00,CLR,,0.00,WeatherDisplay:10.37,2013-04-08 11:40:00,
2013-04-08 13:45:00,64.8,51.0,29.58,ENE,68,1.0,5.0,61,0.00,CLR,,0.00,WeatherDisplay:10.37,2013-04-08 11:45:00,
2013-04-08 13:50:00,63.0,48.4,29.59,North,355,6.0,8.0,59,0.00,CLR,,0.00,WeatherDisplay:10.37,2013-04-08 11:50:00,
2013-04-08 13:55:00,63.0,48.4,29.59,NW,319,6.0,8.0,59,0.00,CLR,,0.00,WeatherDisplay:10.37,2013-04-08 11:55:00,
2013-04-08 14:00:00,63.0,48.4,29.59,NW,315,6.0,8.0,59,0.00,CLR,,0.00,WeatherDisplay:10.37,2013-04-08 12:00:00,
2013-04-08 14:05:00,61.7,47.2,29.59,NW,310,3.0,8.0,59,0.00,CLR,,0.00,WeatherDisplay:10.37,2013-04-08 12:05:00,
2013-04-08 14:10:00,61.7,47.2,29.59,WNW,299,3.0,8.0,59,0.00,CLR,,0.00,WeatherDisplay:10.37,2013-04-08 12:10:00,
2013-04-08 14:15:00,61.7,47.2,29.59,WNW,292,3.0,8.0,59,0.00,CLR,,0.00,WeatherDisplay:10.37,2013-04-08 12:15:00,
2013-04-08 14:20:00,61.9,46.5,29.60,WNW,292,7.0,11.0,57,0.00,CLR,,0.00,WeatherDisplay:10.37,2013-04-08 12:20:00,
2013-04-08 14:25:00,61.9,46.5,29.60,WNW,292,7.0,11.0,57,0.00,CLR,,0.00,WeatherDisplay:10.37,2013-04-08 12:25:00,
2013-04-08 14:30:00,61.9,46.5,29.60,WNW,292,7.0,11.0,57,0.00,CLR,,0.00,WeatherDisplay:10.37,2013-04-08 12:30:00,
2013-04-08 14:35:00,61.3,46.4,29.61,WNW,296,3.0,11.0,58,0.00,CLR,,0.00,WeatherDisplay:10.37,2013-04-08 12:35:00,
2013-04-08 14:40:00,61.3,46.4,29.61,NW,308,3.0,7.0,58,0.00,CLR,,0.00,WeatherDisplay:10.37,2013-04-08 12:40:00,
2013-04-08 14:45:00,61.3,46.4,29.61,NW,315,3.0,7.0,58,0.00,CLR,,0.00,WeatherDisplay:10.37,2013-04-08 12:45:00,
2013-04-08 14:50:00,61.0,47.4,29.61,WNW,300,5.0,7.0,61,0.00,CLR,,0.00,WeatherDisplay:10.37,2013-04-08 12:50:00,
2013-04-08 14:55:00,61.0,47.4,29.61,West,277,5.0,7.0,61,0.00,CLR,,0.00,WeatherDisplay:10.37,2013-04-08 12:55:00,
2013-04-08 15:00:00,61.0,47.4,29.61,West,270,5.0,7.0,61,0.00,CLR,,0.00,WeatherDisplay:10.37,2013-04-08 13:00:00,
2013-04-08 15:05:00,60.8,48.1,29.61,West,270,2.0,7.0,63,0.00,CLR,,0.00,WeatherDisplay:10.37,2013-04-08 13:05:00,
2013-04-08 15:10:00,60.8,48.1,29.61,West,270,2.0,5.0,63,0.00,CLR,,0.00,WeatherDisplay:10.37,2013-04-08 13:10:00,
2013-04-08 15:15:00,60.8,48.1,29.61,West,270,2.0,5.0,63,0.00,CLR,,0.00,WeatherDisplay:10.37,2013-04-08 13:15:00,
2013-04-08 15:20:00,60.6,48.4,29.62,WSW,239,3.0,7.0,64,0.00,CLR,,0.00,WeatherDisplay:10.37,2013-04-08 13:20:00,
2013-04-08 15:25:00,60.6,48.4,29.62,South,190,3.0,7.0,64,0.00,CLR,,0.00,WeatherDisplay:10.37,2013-04-08 13:25:00,
2013-04-08 15:30:00,60.6,48.4,29.62,South,180,3.0,7.0,64,0.00,CLR,,0.00,WeatherDisplay:10.37,2013-04-08 13:30:00,
2013-04-08 15:35:00,60.1,48.3,29.62,South,180,1.0,7.0,65,0.00,CLR,,0.00,WeatherDisplay:10.37,2013-04-08 13:35:00,
2013-04-08 15:40:00,60.1,48.3,29.62,North,0,1.0,4.0,65,0.00,CLR,,0.00,WeatherDisplay:10.37,2013-04-08 13:40:00,
2013-04-08 15:45:00,60.1,48.3,29.62,North,0,1.0,4.0,65,0.00,CLR,,0.00,WeatherDisplay:10.37,2013-04-08 13:45:00,
2013-04-08 15:50:00,59.4,48.4,29.62,North,351,0.0,4.0,67,0.00,CLR,,0.00,WeatherDisplay:10.37,2013-04-08 13:50:00,
2013-04-08 15:55:00,59.4,48.4,29.62,SSW,213,0.0,2.0,67,0.00,CLR,,0.00,WeatherDisplay:10.37,2013-04-08 13:55:00,
2013-04-08 16:00:00,59.4,48.4,29.62,SSW,202,0.0,2.0,67,0.00,CLR,,0.00,WeatherDisplay:10.37,2013-04-08 14:00:00,
2013-04-08 16:05:00,58.6,48.1,29.62,SSW,198,1.0,3.0,68,0.00,CLR,,0.00,WeatherDisplay:10.37,2013-04-08 14:05:00,
2013-04-08 16:10:00,58.6,48.1,29.62,South,187,1.0,3.0,68,0.00,CLR,,0.00,WeatherDisplay:10.37,2013-04-08 14:10:00,
2013-04-08 16:15:00,58.6,48.1,29.62,South,180,1.0,3.0,68,0.00,CLR,,0.00,WeatherDisplay:10.37,2013-04-08 14:15:00,
2013-04-08 16:20:00,58.5,48.7,29.62,SW,227,0.0,3.0,70,0.00,CLR,,0.00,WeatherDisplay:10.37,2013-04-08 14:20:00,
2013-04-08 16:25:00,58.5,48.7,29.62,NW,308,0.0,2.0,70,0.00,CLR,,0.00,WeatherDisplay:10.37,2013-04-08 14:25:00,
2013-04-08 16:30:00,58.5,48.7,29.62,NW,315,0.0,2.0,70,0.00,CLR,,0.00,WeatherDisplay:10.37,2013-04-08 14:30:00,
2013-04-08 16:35:00,58.3,48.9,29.63,NW,315,2.0,5.0,71,0.00,CLR,,0.00,WeatherDisplay:10.37,2013-04-08 14:35:00,
2013-04-08 16:40:00,58.3,48.9,29.63,SE,135,2.0,5.0,71,0.00,CLR,,0.00,WeatherDisplay:10.37,2013-04-08 14:40:00,
2013-04-08 16:45:00,58.3,48.9,29.63,SE,135,2.0,5.0,71,0.00,CLR,,0.00,WeatherDisplay:10.37,2013-04-08 14:45:00,
2013-04-08 16:50:00,57.9,48.9,29.64,SE,135,1.0,5.0,72,0.00,CLR,,0.00,WeatherDisplay:10.37,2013-04-08 14:50:00,
2013-04-08 16:55:00,57.9,48.9,29.64,NW,315,1.0,4.0,72,0.00,CLR,,0.00,WeatherDisplay:10.37,2013-04-08 14:55:00,
2013-04-08 17:00:00,57.9,48.9,29.64,NW,315,1.0,4.0,72,0.00,CLR,,0.00,WeatherDisplay:10.37,2013-04-08 15:00:00,
2013-04-08 17:05:00,57.7,49.1,29.65,NW,305,1.0,4.0,73,0.00,CLR,,0.00,WeatherDisplay:10.37,2013-04-08 15:05:00,
2013-04-08 17:10:00,57.7,49.1,29.65,WSW,255,1.0,2.0,73,0.00,CLR,,0.00,WeatherDisplay:10.37,2013-04-08 15:10:00,
2013-04-08 17:15:00,57.7,49.1,29.65,SW,225,1.0,2.0,73,0.00,CLR,,0.00,WeatherDisplay:10.37,2013-04-08 15:15:00,
2013-04-08 17:20:00,57.7,49.5,29.65,WSW,244,1.0,2.0,74,0.00,CLR,,0.00,WeatherDisplay:10.37,2013-04-08 15:20:00,
2013-04-08 17:25:00,57.7,49.5,29.65,West,280,1.0,2.0,74,0.00,CLR,,0.00,WeatherDisplay:10.37,2013-04-08 15:25:00,
2013-04-08 17:30:00,57.7,49.5,29.65,WNW,292,1.0,2.0,74,0.00,CLR,,0.00,WeatherDisplay:10.37,2013-04-08 15:30:00,
2013-04-08 17:35:00,57.6,49.7,29.65,West,267,1.0,3.0,75,0.00,CLR,,0.00,WeatherDisplay:10.37,2013-04-08 15:35:00,
2013-04-08 17:40:00,57.6,49.7,29.65,SSW,194,1.0,3.0,75,0.00,CLR,,0.00,WeatherDisplay:10.37,2013-04-08 15:40:00,
2013-04-08 17:45:00,57.6,49.7,29.65,South,180,1.0,3.0,75,0.00,CLR,,0.00,WeatherDisplay:10.37,2013-04-08 15:45:00,
2013-04-08 17:50:00,57.2,49.3,29.65,SSW,199,0.0,3.0,75,0.00,CLR,,0.00,WeatherDisplay:10.37,2013-04-08 15:50:00,
2013-04-08 17:55:00,57.2,49.3,29.65,SW,220,0.0,2.0,75,0.00,CLR,,0.00,WeatherDisplay:10.37,2013-04-08 15:55:00,
2013-04-08 18:00:00,57.2,49.3,29.65,SW,225,0.0,2.0,75,0.00,CLR,,0.00,WeatherDisplay:10.37,2013-04-08 16:00:00,
2013-04-08 18:05:00,57.0,49.5,29.65,SSW,212,0.0,2.0,76,0.00,CLR,,0.00,WeatherDisplay:10.37,2013-04-08 16:05:00,
2013-04-08 18:10:00,57.0,49.5,29.65,South,189,0.0,2.0,76,0.00,CLR,,0.00,WeatherDisplay:10.37,2013-04-08 16:10:00,
2013-04-08 18:15:00,57.0,49.5,29.65,South,180,0.0,2.0,76,0.00,CLR,,0.00,WeatherDisplay:10.37,2013-04-08 16:15:00,
2013-04-08 18:20:00,57.0,49.9,29.65,SSW,203,0.0,2.0,77,0.00,CLR,,0.00,WeatherDisplay:10.37,2013-04-08 16:20:00,
2013-04-08 18:25:00,57.0,49.9,29.65,WSW,256,0.0,1.0,77,0.00,CLR,,0.00,WeatherDisplay:10.37,2013-04-08 16:25:00,
2013-04-08 18:30:00,57.0,49.9,29.65,West,270,0.0,1.0,77,0.00,CLR,,0.00,WeatherDisplay:10.37,2013-04-08 16:30:00,
2013-04-08 18:35:00,56.7,49.9,29.66,West,270,1.0,2.0,78,0.00,CLR,,0.00,WeatherDisplay:10.37,2013-04-08 16:35:00,
2013-04-08 18:40:00,56.7,49.9,29.66,East,90,1.0,2.0,78,0.00,CLR,,0.00,WeatherDisplay:10.37,2013-04-08 16:40:00,
2013-04-08 18:45:00,56.7,49.9,29.66,East,90,1.0,2.0,78,0.00,CLR,,0.00,WeatherDisplay:10.37,2013-04-08 16:45:00,
2013-04-08 18:50:00,56.7,50.2,29.65,SSE,157,1.0,6.0,79,0.00,CLR,,0.00,WeatherDisplay:10.37,2013-04-08 16:50:00,
2013-04-08 18:55:00,56.7,50.2,29.65,SW,220,1.0,6.0,79,0.00,CLR,,0.00,WeatherDisplay:10.37,2013-04-08 16:55:00,
2013-04-08 19:00:00,56.7,50.2,29.65,SW,225,1.0,6.0,79,0.00,CLR,,0.00,WeatherDisplay:10.37,2013-04-08 17:00:00,
2013-04-08 19:05:00,56.7,50.2,29.66,SW,235,0.0,6.0,79,0.00,CLR,,0.00,WeatherDisplay:10.37,2013-04-08 17:05:00,
2013-04-08 19:10:00,56.7,50.2,29.66,West,259,0.0,2.0,79,0.00,CLR,,0.00,WeatherDisplay:10.37,2013-04-08 17:10:00,
2013-04-08 19:15:00,56.7,50.2,29.66,West,270,0.0,2.0,79,0.00,CLR,,0.00,WeatherDisplay:10.37,2013-04-08 17:15:00,
2013-04-08 19:20:00,56.7,50.2,29.66,WSW,247,0.0,2.0,79,0.00,CLR,,0.00,WeatherDisplay:10.37,2013-04-08 17:20:00,
2013-04-08 19:25:00,56.7,50.2,29.66,SSW,194,0.0,2.0,79,0.00,CLR,,0.00,WeatherDisplay:10.37,2013-04-08 17:25:00,
2013-04-08 19:30:00,56.7,50.2,29.66,South,180,0.0,2.0,79,0.00,CLR,,0.00,WeatherDisplay:10.37,2013-04-08 17:30:00,
2013-04-08 19:35:00,56.5,50.4,29.66,SSE,167,0.0,2.0,80,0.00,CLR,,0.00,WeatherDisplay:10.37,2013-04-08 17:35:00,
2013-04-08 19:40:00,56.5,50.4,29.66,SE,144,0.0,2.0,80,0.00,CLR,,0.00,WeatherDisplay:10.37,2013-04-08 17:40:00,
2013-04-08 19:45:00,56.5,50.4,29.66,SE,135,0.0,2.0,80,0.00,CLR,,0.00,WeatherDisplay:10.37,2013-04-08 17:45:00,
2013-04-08 19:50:00,56.3,50.2,29.66,SSE,149,1.0,3.0,80,0.00,CLR,,0.00,WeatherDisplay:10.37,2013-04-08 17:50:00,
2013-04-08 19:55:00,56.3,50.2,29.66,SSW,202,1.0,3.0,80,0.00,CLR,,0.00,WeatherDisplay:10.37,2013-04-08 17:55:00,
2013-04-08 20:00:00,56.3,50.2,29.66,SW,225,1.0,3.0,80,0.00,CLR,,0.00,WeatherDisplay:10.37,2013-04-08 18:00:00,
2013-04-08 20:05:00,56.3,50.5,29.66,SSW,206,0.0,3.0,81,0.00,CLR,,0.00,WeatherDisplay:10.37,2013-04-08 18:05:00,
2013-04-08 20:10:00,56.3,50.5,29.66,South,185,0.0,2.0,81,0.00,CLR,,0.00,WeatherDisplay:10.37,2013-04-08 18:10:00,
2013-04-08 20:15:00,56.3,50.5,29.66,South,180,0.0,2.0,81,0.00,CLR,,0.00,WeatherDisplay:10.37,2013-04-08 18:15:00,
2013-04-08 20:20:00,56.3,50.5,29.66,SSE,157,0.0,2.0,81,0.00,CLR,,0.00,WeatherDisplay:10.37,2013-04-08 18:20:00,
2013-04-08 20:25:00,56.3,50.5,29.66,ESE,104,0.0,2.0,81,0.00,CLR,,0.00,WeatherDisplay:10.37,2013-04-08 18:25:00,
2013-04-08 20:30:00,56.3,50.5,29.66,East,90,0.0,2.0,81,0.00,CLR,,0.00,WeatherDisplay:10.37,2013-04-08 18:30:00,
2013-04-08 20:35:00,56.5,50.7,29.67,East,99,1.0,2.0,81,0.00,CLR,,0.00,WeatherDisplay:10.37,2013-04-08 18:35:00,
2013-04-08 20:40:00,56.5,50.7,29.67,ESE,122,1.0,2.0,81,0.00,CLR,,0.00,WeatherDisplay:10.37,2013-04-08 18:40:00,
2013-04-08 20:45:00,56.5,50.7,29.67,SE,135,1.0,2.0,81,0.00,CLR,,0.00,WeatherDisplay:10.37,2013-04-08 18:45:00,
2013-04-08 20:50:00,56.5,51.1,29.66,SE,135,1.0,2.0,82,0.00,CLR,,0.00,WeatherDisplay:10.37,2013-04-08 18:50:00,
2013-04-08 20:55:00,56.5,51.1,29.66,SE,135,1.0,2.0,82,0.00,CLR,,0.00,WeatherDisplay:10.37,2013-04-08 18:55:00,
2013-04-08 21:00:00,56.5,51.1,29.66,SE,135,1.0,2.0,82,0.00,CLR,,0.00,WeatherDisplay:10.37,2013-04-08 19:00:00,
2013-04-08 21:05:00,56.7,51.2,29.67,South,190,2.0,4.0,82,0.00,CLR,,0.00,WeatherDisplay:10.37,2013-04-08 19:05:00,
2013-04-08 21:10:00,56.7,51.2,29.67,SW,221,2.0,4.0,82,0.00,CLR,,0.00,WeatherDisplay:10.37,2013-04-08 19:10:00,
2013-04-08 21:15:00,56.7,51.2,29.67,SW,225,2.0,4.0,82,0.00,CLR,,0.00,WeatherDisplay:10.37,2013-04-08 19:15:00,
2013-04-08 21:20:00,56.7,51.2,29.67,SW,235,1.0,4.0,82,0.00,CLR,,0.00,WeatherDisplay:10.37,2013-04-08 19:20:00,
2013-04-08 21:25:00,56.7,51.2,29.67,West,259,1.0,2.0,82,0.00,CLR,,0.00,WeatherDisplay:10.37,2013-04-08 19:25:00,
2013-04-08 21:30:00,56.7,51.2,29.67,West,270,1.0,2.0,82,0.00,CLR,,0.00,WeatherDisplay:10.37,2013-04-08 19:30:00,
2013-04-08 21:35:00,56.7,51.2,29.66,West,270,1.0,3.0,82,0.00,CLR,,0.00,WeatherDisplay:10.37,2013-04-08 19:35:00,
2013-04-08 21:40:00,56.7,51.2,29.66,West,270,1.0,3.0,82,0.00,CLR,,0.00,WeatherDisplay:10.37,2013-04-08 19:40:00,
2013-04-08 21:45:00,56.7,51.2,29.66,West,270,1.0,3.0,82,0.00,CLR,,0.00,WeatherDisplay:10.37,2013-04-08 19:45:00,
2013-04-08 21:50:00,56.5,51.1,29.66,WSW,257,1.0,6.0,82,0.00,CLR,,0.00,WeatherDisplay:10.37,2013-04-08 19:50:00,
2013-04-08 21:55:00,56.5,51.1,29.66,SW,234,1.0,6.0,82,0.00,CLR,,0.00,WeatherDisplay:10.37,2013-04-08 19:55:00,
2013-04-08 22:00:00,56.5,51.1,29.66,SW,225,1.0,6.0,82,0.00,CLR,,0.00,WeatherDisplay:10.37,2013-04-08 20:00:00,
2013-04-08 22:05:00,56.5,51.1,29.65,SW,235,0.0,6.0,82,0.00,CLR,,0.00,WeatherDisplay:10.37,2013-04-08 20:05:00,
2013-04-08 22:10:00,56.5,51.1,29.65,West,259,0.0,2.0,82,0.00,CLR,,0.00,WeatherDisplay:10.37,2013-04-08 20:10:00,
2013-04-08 22:15:00,56.5,51.1,29.65,West,270,0.0,2.0,82,0.00,CLR,,0.00,WeatherDisplay:10.37,2013-04-08 20:15:00,
2013-04-08 22:20:00,56.1,50.7,29.65,WNW,283,0.0,2.0,82,0.00,CLR,,0.00,WeatherDisplay:10.37,2013-04-08 20:20:00,
2013-04-08 22:25:00,56.1,50.7,29.65,NW,306,0.0,2.0,82,0.00,CLR,,0.00,WeatherDisplay:10.37,2013-04-08 20:25:00,
2013-04-08 22:30:00,56.1,50.7,29.65,NW,315,0.0,2.0,82,0.00,CLR,,0.00,WeatherDisplay:10.37,2013-04-08 20:30:00,
2013-04-08 22:35:00,55.9,50.5,29.65,NW,315,0.0,2.0,82,0.00,CLR,,0.00,WeatherDisplay:10.37,2013-04-08 20:35:00,
2013-04-08 22:40:00,55.9,50.5,29.65,SE,135,0.0,2.0,82,0.00,CLR,,0.00,WeatherDisplay:10.37,2013-04-08 20:40:00,
2013-04-08 22:45:00,55.9,50.5,29.65,SE,135,0.0,2.0,82,0.00,CLR,,0.00,WeatherDisplay:10.37,2013-04-08 20:45:00,
2013-04-08 22:50:00,55.6,50.2,29.64,ESE,122,0.0,2.0,82,0.00,CLR,,0.00,WeatherDisplay:10.37,2013-04-08 20:50:00,
2013-04-08 22:55:00,55.6,50.2,29.64,East,99,0.0,1.0,82,0.00,CLR,,0.00,WeatherDisplay:10.37,2013-04-08 20:55:00,
2013-04-08 23:00:00,55.6,50.2,29.64,East,90,0.0,1.0,82,0.00,CLR,,0.00,WeatherDisplay:10.37,2013-04-08 21:00:00,
2013-04-08 23:05:00,55.0,50.0,29.64,East,90,0.0,1.0,83,0.00,CLR,,0.00,WeatherDisplay:10.37,2013-04-08 21:05:00,
2013-04-08 23:10:00,55.0,50.0,29.64,East,90,0.0,1.0,83,0.00,CLR,,0.00,WeatherDisplay:10.37,2013-04-08 21:10:00,
2013-04-08 23:15:00,55.0,50.0,29.64,East,90,0.0,1.0,83,0.00,CLR,,0.00,WeatherDisplay:10.37,2013-04-08 21:15:00,
2013-04-08 23:20:00,54.7,49.6,29.64,ESE,103,0.0,1.0,83,0.00,CLR,,0.00,WeatherDisplay:10.37,2013-04-08 21:20:00,
2013-04-08 23:25:00,54.7,49.6,29.64,SE,126,0.0,1.0,83,0.00,CLR,,0.00,WeatherDisplay:10.37,2013-04-08 21:25:00,
2013-04-08 23:30:00,54.7,49.6,29.64,SE,135,0.0,1.0,83,0.00,CLR,,0.00,WeatherDisplay:10.37,2013-04-08 21:30:00,
2013-04-08 23:35:00,54.7,49.9,29.63,SE,135,0.0,1.0,84,0.00,CLR,,0.00,WeatherDisplay:10.37,2013-04-08 21:35:00,
2013-04-08 23:40:00,54.7,49.9,29.63,SE,135,0.0,0.0,84,0.00,CLR,,0.00,WeatherDisplay:10.37,2013-04-08 21:40:00,
2013-04-08 23:45:00,54.7,49.9,29.63,SE,135,0.0,0.0,84,0.00,CLR,,0.00,WeatherDisplay:10.37,2013-04-08 21:45:00,
2013-04-08 23:50:00,54.5,49.8,29.63,SSE,158,0.0,0.0,84,0.00,CLR,,0.00,WeatherDisplay:10.37,2013-04-08 21:50:00,
2013-04-08 23:55:00,54.5,49.8,29.63,SSW,211,0.0,0.0,84,0.00,CLR,,0.00,WeatherDisplay:10.37,2013-04-08 21:55:00,